Time;durP1;ratioP1;P1;durP2;ratioP2;P2;SDS_P1;SDS_P2;PMS_P1;PMS_P2;Temp;Humidity;BMP_temperature;BMP_pressure;BME280_temperature;BME280_humidity;BME280_pressure;Samples;Min_cycle;Max_cycle;Signal;HPM_P1;HPM_P2
2021/06/09 00:01:42;;;;;;;7.40;4.67;;;;;;;11.27;87.60;93210.45;1823559;77;21613;-84
2021/06/09 00:04:09;;;;;;;7.62;4.97;;;;;;;11.24;87.42;93211.25;1818953;78;21029;-82
2021/06/09 00:06:36;;;;;;;6.55;5.12;;;;;;;11.21;87.71;93207.20;1803525;75;21059;-84
2021/06/09 00:09:04;;;;;;;8.18;5.30;;;;;;;11.19;87.91;93204.30;1818541;77;21601;-83
2021/06/09 00:11:32;;;;;;;12.23;4.95;;;;;;;11.23;87.78;93215.75;1814572;78;21069;-81
2021/06/09 00:14:00;;;;;;;7.35;5.58;;;;;;;11.27;87.83;93213.17;1821824;78;21135;-82
2021/06/09 00:16:27;;;;;;;11.00;6.80;;;;;;;11.31;87.57;93217.22;1819510;76;21532;-81
2021/06/09 00:18:53;;;;;;;9.70;6.40;;;;;;;11.31;87.56;93209.82;1831357;78;21097;-82
2021/06/09 00:21:20;;;;;;;7.25;4.90;;;;;;;11.35;87.25;93205.70;1815178;78;20997;-83
2021/06/09 00:23:47;;;;;;;6.40;5.17;;;;;;;11.32;87.43;93207.87;1818745;78;21531;-82
2021/06/09 00:26:16;;;;;;;7.60;5.10;;;;;;;11.23;87.69;93211.07;1819254;78;21141;-82
2021/06/09 00:28:45;;;;;;;5.58;5.08;;;;;;;11.19;88.05;93204.30;1818730;78;21045;-83
2021/06/09 00:31:12;;;;;;;6.85;4.47;;;;;;;11.18;87.84;93204.13;1817376;78;21029;-82
2021/06/09 00:33:38;;;;;;;6.05;4.10;;;;;;;11.21;87.96;93209.36;1817883;78;21068;-82
2021/06/09 00:36:05;;;;;;;9.30;4.95;;;;;;;11.26;87.81;93201.34;1797050;78;21036;-82
2021/06/09 00:38:31;;;;;;;9.25;4.72;;;;;;;11.26;87.76;93205.42;1784002;80;21127;-82
2021/06/09 00:40:59;;;;;;;7.37;4.42;;;;;;;11.24;87.89;93200.95;1809599;76;21046;-81
2021/06/09 00:43:27;;;;;;;5.22;4.72;;;;;;;11.19;88.12;93202.94;1817482;79;21051;-82
2021/06/09 00:46:06;;;;;;;4.55;4.12;;;;;;;11.18;88.43;93198.69;1788231;75;21650;-79
2021/06/09 00:48:34;;;;;;;5.87;4.00;;;;;;;11.19;88.75;93196.73;1858913;76;21614;-81
2021/06/09 00:51:08;;;;;;;7.53;4.58;;;;;;;11.26;88.55;93195.89;1839345;75;21100;-83
2021/06/09 00:53:37;;;;;;;7.03;4.20;;;;;;;11.29;88.25;93199.94;1818299;78;21083;-82
2021/06/09 00:56:08;;;;;;;6.53;4.40;;;;;;;11.31;88.02;93189.41;1814848;78;21036;-82
2021/06/09 00:58:35;;;;;;;7.00;4.15;;;;;;;11.32;87.88;93195.05;1875895;76;21492;-84
2021/06/09 01:01:02;;;;;;;6.10;4.67;;;;;;;11.32;87.88;93192.89;1854478;77;21413;-83
2021/06/09 01:03:29;;;;;;;5.62;4.85;;;;;;;11.33;87.83;93195.23;1821103;78;21206;-81
2021/06/09 01:05:56;;;;;;;8.68;6.55;;;;;;;11.32;87.78;93194.25;1820619;78;21048;-81
2021/06/09 01:08:22;;;;;;;13.38;7.83;;;;;;;11.31;87.46;93188.05;1821753;78;21559;-82
2021/06/09 01:10:50;;;;;;;8.88;6.10;;;;;;;11.31;86.99;93182.60;1814357;78;21550;-82
2021/06/09 01:13:20;;;;;;;15.90;6.87;;;;;;;11.32;86.65;93186.89;1812758;79;21104;-80
2021/06/09 01:15:46;;;;;;;7.87;6.40;;;;;;;11.27;86.55;93183.23;1813275;78;21495;-80
2021/06/09 01:18:13;;;;;;;10.03;5.85;;;;;;;11.22;86.85;93180.95;1811119;79;20993;-81
2021/06/09 01:20:39;;;;;;;8.30;5.15;;;;;;;11.19;86.98;93183.89;1791970;79;21115;-80
2021/06/09 01:23:06;;;;;;;11.65;4.80;;;;;;;11.18;87.09;93177.50;1784557;78;21532;-83
2021/06/09 01:25:33;;;;;;;11.70;5.08;;;;;;;11.16;87.40;93185.28;1785625;80;21009;-83
2021/06/09 01:28:00;;;;;;;7.10;4.22;;;;;;;11.13;87.75;93184.73;1810978;78;21166;-82
2021/06/09 01:30:27;;;;;;;5.12;3.92;;;;;;;11.04;88.24;93181.13;1761065;80;21061;-81
2021/06/09 01:32:53;;;;;;;8.63;4.72;;;;;;;10.95;88.93;93176.75;1782961;77;21068;-81
2021/06/09 01:35:20;;;;;;;8.55;4.95;;;;;;;10.84;89.41;93179.56;1839802;77;21642;-83
2021/06/09 01:37:48;;;;;;;5.08;4.40;;;;;;;10.81;89.87;93177.64;1787887;80;21087;-82
2021/06/09 01:40:22;;;;;;;8.98;4.25;;;;;;;10.84;90.04;93179.56;1803994;78;21795;-81
2021/06/09 01:42:50;;;;;;;5.37;4.78;;;;;;;10.89;90.27;93179.13;1772986;79;26444;-79
2021/06/09 01:45:20;;;;;;;8.08;4.33;;;;;;;10.97;90.12;93181.19;1776442;79;21005;-82
2021/06/09 01:47:47;;;;;;;7.42;4.62;;;;;;;11.03;89.86;93179.59;1800321;79;21089;-81
2021/06/09 01:50:14;;;;;;;6.17;4.28;;;;;;;11.07;89.78;93172.75;1815696;78;21037;-82
2021/06/09 01:52:41;;;;;;;5.22;4.25;;;;;;;11.05;89.61;93174.50;1782104;80;21155;-82
2021/06/09 01:55:10;;;;;;;4.85;4.03;;;;;;;11.00;89.70;93179.63;1801432;78;22261;-78
2021/06/09 01:57:36;;;;;;;6.72;4.67;;;;;;;10.93;90.02;93178.50;1742319;81;21092;-81
2021/06/09 02:00:11;;;;;;;6.97;4.33;;;;;;;10.86;90.42;93170.40;1801454;78;21547;-81
2021/06/09 02:02:41;;;;;;;6.37;4.20;;;;;;;10.88;90.50;93172.73;1784915;79;21033;-78
2021/06/09 02:05:10;;;;;;;8.05;4.22;;;;;;;10.87;90.48;93171.97;1788537;80;21107;-80
2021/06/09 02:07:42;;;;;;;6.10;3.90;;;;;;;10.78;90.71;93170.28;1783628;79;21035;-82
2021/06/09 02:10:12;;;;;;;6.53;4.33;;;;;;;10.75;91.30;93170.31;1757390;79;21058;-80
2021/06/09 02:12:42;;;;;;;6.17;4.33;;;;;;;10.80;91.24;93168.54;1760992;81;21066;-81
2021/06/09 02:15:10;;;;;;;5.17;4.17;;;;;;;10.84;91.17;93172.00;1791729;76;21029;-82
2021/06/09 02:17:37;;;;;;;7.28;3.77;;;;;;;10.89;90.89;93168.24;1800083;79;21140;-82
2021/06/09 02:20:06;;;;;;;5.67;4.35;;;;;;;10.86;90.81;93167.69;1798090;79;21277;-80
2021/06/09 02:22:32;;;;;;;7.45;4.80;;;;;;;10.81;90.99;93175.52;1820179;76;21085;-80
2021/06/09 02:24:58;;;;;;;10.85;4.47;;;;;;;10.79;91.40;93159.58;1790118;78;21018;-81
2021/06/09 02:27:24;;;;;;;4.53;3.92;;;;;;;10.85;91.35;93161.30;1805821;79;21528;-83
2021/06/09 02:29:51;;;;;;;10.13;4.95;;;;;;;10.92;91.22;93162.00;1800869;79;21081;-82
2021/06/09 02:32:18;;;;;;;8.50;4.50;;;;;;;10.97;90.91;93160.78;1812414;78;21017;-80
2021/06/09 02:34:44;;;;;;;5.62;4.60;;;;;;;10.97;90.71;93154.58;1801036;78;21025;-80
2021/06/09 02:37:11;;;;;;;25.80;6.95;;;;;;;10.98;90.84;93162.32;1828635;75;21101;-81
2021/06/09 02:39:37;;;;;;;7.30;4.28;;;;;;;11.03;90.70;93164.63;1828947;78;21001;-79
2021/06/09 02:42:04;;;;;;;5.25;4.00;;;;;;;11.09;90.31;93163.58;1788744;79;21139;-82
2021/06/09 02:44:30;;;;;;;7.20;4.75;;;;;;;11.08;89.99;93160.09;1808795;78;21061;-81
2021/06/09 02:47:01;;;;;;;7.28;5.10;;;;;;;11.06;89.87;93161.10;1747228;81;21485;-80
2021/06/09 02:49:29;;;;;;;9.38;4.70;;;;;;;11.07;89.79;93165.95;1816671;78;20958;-79
2021/06/09 02:52:04;;;;;;;7.05;4.65;;;;;;;11.09;89.57;93162.22;1784689;80;21041;-81
2021/06/09 02:54:47;;;;;;;4.67;4.00;;;;;;;11.10;89.34;93159.11;1819411;78;21106;-81
2021/06/09 02:57:42;;;;;;;5.37;4.20;;;;;;;10.98;89.49;93159.60;1785411;79;21033;-81
2021/06/09 03:00:15;;;;;;;7.22;4.55;;;;;;;10.84;90.10;93158.40;1810242;77;21083;-81
2021/06/09 03:03:15;;;;;;;9.05;4.50;;;;;;;10.72;90.95;93161.03;1792489;78;21257;-80
2021/06/09 03:06:09;;;;;;;5.85;4.30;;;;;;;10.74;90.99;93160.03;1761443;79;21053;-80
2021/06/09 03:08:46;;;;;;;4.62;3.75;;;;;;;10.78;91.19;93160.77;1872361;76;21125;-81
2021/06/09 03:14:27;;;;;;;4.97;3.87;;;;;;;10.83;91.24;93167.15;1826144;78;21611;-80
2021/06/09 03:16:55;;;;;;;7.15;4.30;;;;;;;10.84;91.27;93166.56;1824921;78;21061;-82
2021/06/09 03:19:26;;;;;;;6.33;5.37;;;;;;;10.84;91.57;93168.69;1794112;79;21081;-82
2021/06/09 03:22:02;;;;;;;10.32;5.72;;;;;;;10.89;91.25;93166.88;1848866;76;21221;-81
2021/06/09 03:24:41;;;;;;;6.22;5.60;;;;;;;10.90;90.83;93169.78;1817931;78;21096;-81
2021/06/09 03:27:21;;;;;;;9.40;4.78;;;;;;;10.90;90.64;93167.65;1859269;75;20966;-81
2021/06/09 03:29:55;;;;;;;7.12;5.75;;;;;;;10.96;90.69;93163.33;1818995;76;21496;-82
2021/06/09 03:35:12;;;;;;;7.50;4.80;;;;;;;11.04;90.28;93168.11;1772947;80;21775;-81
2021/06/09 03:37:42;;;;;;;4.37;3.98;;;;;;;11.04;90.09;93163.44;1817115;78;21025;-82
2021/06/09 03:40:13;;;;;;;5.17;4.05;;;;;;;10.97;90.34;93166.23;1811460;77;21034;-82
2021/06/09 03:42:40;;;;;;;5.45;4.78;;;;;;;10.85;90.93;93158.58;1816295;77;21626;-82
2021/06/09 03:45:07;;;;;;;6.25;4.22;;;;;;;10.86;91.50;93159.52;1795981;77;21076;-81
2021/06/09 03:47:35;;;;;;;6.70;4.10;;;;;;;10.92;91.81;93164.72;1853043;77;21135;-82
2021/06/09 03:50:02;;;;;;;5.22;4.33;;;;;;;11.01;91.73;93160.75;1816974;76;21642;-81
2021/06/09 03:52:29;;;;;;;7.42;4.28;;;;;;;11.08;91.71;93160.69;1818934;78;21009;-82
2021/06/09 03:54:57;;;;;;;4.35;3.92;;;;;;;11.18;91.49;93162.53;1814352;78;21024;-82
2021/06/09 03:57:24;;;;;;;7.50;4.10;;;;;;;11.28;91.10;93163.58;1815482;78;21571;-81
2021/06/09 03:59:50;;;;;;;4.60;3.90;;;;;;;11.36;90.85;93157.67;1827942;78;21105;-82
2021/06/09 04:02:17;;;;;;;9.05;3.90;;;;;;;11.43;90.52;93158.16;1819267;78;21045;-83
2021/06/09 04:04:43;;;;;;;4.22;3.83;;;;;;;11.52;90.44;93154.97;1772797;80;21041;-83
2021/06/09 04:07:10;;;;;;;8.48;5.40;;;;;;;11.57;90.16;93161.32;1812833;78;21025;-82
2021/06/09 04:09:36;;;;;;;6.53;4.85;;;;;;;11.61;90.11;93156.59;1788567;79;21040;-82
2021/06/09 04:12:05;;;;;;;6.92;5.50;;;;;;;11.67;89.70;93156.34;1810745;77;21088;-83
2021/06/09 04:14:45;;;;;;;7.95;6.17;;;;;;;11.73;89.21;93156.05;1788417;80;21065;-82
2021/06/09 04:17:13;;;;;;;7.55;6.30;;;;;;;11.78;88.83;93160.30;1780889;80;21061;-82
2021/06/09 04:19:42;;;;;;;7.60;6.65;;;;;;;11.79;88.55;93155.80;1789291;79;21057;-82
2021/06/09 04:22:09;;;;;;;10.10;6.42;;;;;;;11.80;88.48;93157.33;1825899;77;21104;-81
2021/06/09 04:24:38;;;;;;;7.30;5.35;;;;;;;11.84;88.57;93152.63;1809431;78;21038;-82
2021/06/09 04:27:08;;;;;;;6.58;4.42;;;;;;;11.86;88.82;93152.24;1848989;76;21069;-81
2021/06/09 04:29:35;;;;;;;6.75;5.60;;;;;;;11.87;88.99;93153.19;1875238;76;21025;-81
2021/06/09 04:32:05;;;;;;;5.72;5.08;;;;;;;11.91;89.17;93153.91;1764748;79;21113;-82
2021/06/09 04:34:50;;;;;;;9.00;5.33;;;;;;;12.01;89.04;93154.19;1793275;79;21053;-82
2021/06/09 04:37:18;;;;;;;6.42;5.45;;;;;;;12.10;88.34;93156.56;1802484;79;21114;-81
2021/06/09 04:39:45;;;;;;;7.90;5.45;;;;;;;12.23;88.22;93158.75;1762818;80;21029;-83
2021/06/09 04:42:11;;;;;;;5.53;4.97;;;;;;;12.38;88.44;93160.09;1796932;78;21085;-81
2021/06/09 04:44:39;;;;;;;6.92;5.75;;;;;;;12.53;87.87;93164.73;1784910;80;21073;-82
2021/06/09 04:47:06;;;;;;;5.97;5.40;;;;;;;12.62;86.95;93161.64;1799131;79;21054;-80
2021/06/09 04:49:35;;;;;;;7.58;5.75;;;;;;;12.66;85.81;93160.83;1819049;78;21815;-80
2021/06/09 04:52:03;;;;;;;9.30;5.87;;;;;;;12.68;85.37;93161.20;1811743;78;21022;-82
2021/06/09 04:54:31;;;;;;;6.05;5.12;;;;;;;12.77;85.66;93158.70;1817701;77;21021;-83
2021/06/09 04:56:58;;;;;;;7.67;5.75;;;;;;;12.94;85.54;93154.91;1803060;79;21106;-81
2021/06/09 04:59:26;;;;;;;6.47;5.80;;;;;;;13.12;84.45;93153.20;1746317;79;21121;-83
2021/06/09 05:01:52;;;;;;;7.35;5.75;;;;;;;13.22;83.55;93148.16;1745070;82;21512;-83
2021/06/09 05:04:19;;;;;;;8.03;5.10;;;;;;;13.30;82.87;93145.50;1821187;76;21022;-82
2021/06/09 05:06:46;;;;;;;9.03;5.60;;;;;;;13.34;82.03;93148.93;1853877;76;21029;-84
2021/06/09 05:09:13;;;;;;;7.40;5.17;;;;;;;13.41;82.10;93152.73;1783060;78;21136;-83
2021/06/09 05:12:07;;;;;;;12.30;6.25;;;;;;;13.60;82.48;93150.59;1807779;78;21748;-84
2021/06/09 05:14:46;;;;;;;6.12;5.03;;;;;;;13.86;81.56;93147.53;1794154;79;21081;-84
2021/06/09 05:17:13;;;;;;;6.17;4.70;;;;;;;13.98;79.59;93146.12;1795714;79;20919;-83
2021/06/09 05:19:40;;;;;;;6.08;4.58;;;;;;;13.94;79.19;93144.82;1799814;79;21288;-81
2021/06/09 05:22:26;;;;;;;4.62;4.22;;;;;;;13.90;79.16;93147.47;1772520;79;21184;-82
2021/06/09 05:24:53;;;;;;;5.47;4.35;;;;;;;13.90;79.36;93146.86;1823000;78;21041;-81
2021/06/09 05:27:21;;;;;;;5.05;4.65;;;;;;;14.06;80.40;93139.30;1853369;76;21077;-82
2021/06/09 05:29:47;;;;;;;6.20;4.10;;;;;;;14.26;79.53;93141.41;1807287;79;21097;-83
2021/06/09 05:32:14;;;;;;;4.47;4.10;;;;;;;14.42;78.67;93141.25;1863524;76;21038;-81
2021/06/09 05:34:41;;;;;;;4.83;4.33;;;;;;;14.56;79.19;93138.98;1801605;79;21104;-83
2021/06/09 05:37:10;;;;;;;8.63;3.92;;;;;;;14.88;79.72;93144.28;1819914;78;21733;-81
2021/06/09 05:39:37;;;;;;;6.05;3.80;;;;;;;15.38;77.79;93147.70;1792206;78;21166;-82
2021/06/09 05:42:12;;;;;;;7.37;4.05;;;;;;;15.74;76.57;93154.40;1885540;76;21080;-82
2021/06/09 05:44:47;;;;;;;7.85;4.58;;;;;;;15.90;74.82;93142.59;1821934;78;21643;-86
2021/06/09 05:47:14;;;;;;;7.92;4.97;;;;;;;16.02;74.47;93143.22;1849110;77;21061;-84
2021/06/09 05:49:41;;;;;;;6.90;4.37;;;;;;;16.20;74.27;93142.70;1812971;79;21045;-84
2021/06/09 05:52:08;;;;;;;7.33;4.80;;;;;;;16.34;72.55;93139.53;1812289;79;21105;-82
2021/06/09 05:54:39;;;;;;;5.53;4.20;;;;;;;16.42;72.90;93140.84;1811076;79;21689;-81
2021/06/09 05:57:09;;;;;;;4.87;4.47;;;;;;;16.46;72.34;93144.86;1812076;79;21313;-83
2021/06/09 05:59:35;;;;;;;7.53;4.75;;;;;;;16.51;72.39;93146.47;1803527;79;21134;-82
2021/06/09 06:02:03;;;;;;;5.92;4.40;;;;;;;16.65;72.77;93145.84;1786211;79;21443;-82
2021/06/09 06:04:30;;;;;;;6.22;4.25;;;;;;;16.78;71.98;93146.64;1778120;80;22158;-82
2021/06/09 06:06:57;;;;;;;4.85;4.45;;;;;;;16.88;71.12;93138.64;1812191;78;21006;-81
2021/06/09 06:09:25;;;;;;;4.67;4.15;;;;;;;16.99;70.58;93143.80;1805119;79;21041;-82
2021/06/09 06:11:51;;;;;;;5.00;4.50;;;;;;;17.09;70.02;93145.42;1874047;76;21089;-85
2021/06/09 06:14:19;;;;;;;6.58;4.20;;;;;;;17.23;70.51;93146.34;1802756;79;21359;-81
2021/06/09 06:16:51;;;;;;;6.50;3.98;;;;;;;17.37;69.89;93140.17;1836728;77;21093;-81
2021/06/09 06:19:18;;;;;;;7.78;4.10;;;;;;;17.50;68.92;93142.28;1795914;78;20966;-83
2021/06/09 06:21:44;;;;;;;5.67;4.05;;;;;;;17.62;67.80;93135.96;1797542;78;20931;-81
2021/06/09 06:24:11;;;;;;;6.45;4.58;;;;;;;17.72;67.48;93137.58;1795093;79;21059;-82
2021/06/09 06:26:37;;;;;;;5.72;3.77;;;;;;;17.81;66.52;93132.00;1793889;79;21101;-82
2021/06/09 06:29:04;;;;;;;4.83;3.67;;;;;;;17.90;66.45;93133.42;1793831;79;21285;-85
2021/06/09 06:31:30;;;;;;;3.47;3.17;;;;;;;18.02;65.58;93131.23;1793903;79;21686;-84
2021/06/09 06:33:59;;;;;;;4.37;3.98;;;;;;;18.13;65.41;93132.22;1807586;76;21141;-85
2021/06/09 06:36:27;;;;;;;5.12;3.70;;;;;;;18.23;65.37;93131.64;1821728;78;21048;-85
2021/06/09 06:38:54;;;;;;;7.12;3.20;;;;;;;18.34;65.10;93128.64;1774021;77;21093;-83
2021/06/09 06:41:21;;;;;;;3.85;3.35;;;;;;;18.41;63.17;93124.23;1862407;75;21139;-84
2021/06/09 06:43:48;;;;;;;4.70;3.77;;;;;;;18.41;63.50;93124.85;1857940;76;21048;-84
2021/06/09 06:46:18;;;;;;;3.83;3.52;;;;;;;18.37;63.48;93132.48;1780927;80;21040;-82
2021/06/09 06:48:46;;;;;;;4.40;3.25;;;;;;;18.32;62.74;93132.47;1825448;77;21549;-83
2021/06/09 06:51:14;;;;;;;4.15;3.75;;;;;;;18.28;62.95;93132.42;1817202;78;21010;-86
2021/06/09 06:53:46;;;;;;;3.60;3.30;;;;;;;18.25;63.52;93130.59;1819591;78;21112;-82
2021/06/09 06:56:14;;;;;;;3.83;3.12;;;;;;;18.24;61.95;93136.71;1810302;78;21554;-81
2021/06/09 06:58:48;;;;;;;3.65;3.30;;;;;;;18.24;62.49;93132.58;1809531;79;21053;-83
2021/06/09 07:01:31;;;;;;;6.33;3.87;;;;;;;18.25;62.47;93140.23;1812516;78;21089;-81
2021/06/09 07:03:58;;;;;;;4.00;3.30;;;;;;;18.24;63.01;93138.09;1801615;79;21042;-83
2021/06/09 07:06:24;;;;;;;5.50;3.55;;;;;;;18.27;62.91;93129.52;1786566;80;22112;-82
2021/06/09 07:08:52;;;;;;;4.42;4.00;;;;;;;18.30;63.54;93129.38;1803572;78;21282;-83
2021/06/09 07:11:18;;;;;;;4.65;3.50;;;;;;;18.39;65.12;93135.53;1785458;80;21698;-80
2021/06/09 07:13:48;;;;;;;6.85;3.58;;;;;;;18.47;62.82;93137.41;1819712;77;21056;-82
2021/06/09 07:16:16;;;;;;;4.35;3.77;;;;;;;18.53;61.28;93133.61;1787339;78;21578;-81
2021/06/09 07:18:46;;;;;;;5.65;4.30;;;;;;;18.61;60.27;93138.23;1793284;78;21124;-82
2021/06/09 07:21:17;;;;;;;4.05;3.75;;;;;;;18.70;60.63;93128.64;1760104;80;21128;-82
2021/06/09 07:23:44;;;;;;;7.40;4.05;;;;;;;18.79;60.98;93127.93;1812223;79;21357;-82
2021/06/09 07:26:11;;;;;;;5.85;4.25;;;;;;;18.82;60.36;93127.02;1813321;79;21100;-81
2021/06/09 07:28:50;;;;;;;5.28;3.72;;;;;;;18.87;60.08;93129.94;1810844;79;20955;-80
2021/06/09 07:31:26;;;;;;;3.80;3.50;;;;;;;18.93;57.31;93125.98;1812926;79;21187;-85
2021/06/09 07:33:52;;;;;;;6.72;3.52;;;;;;;19.03;58.77;93130.30;1871805;76;21038;-81
2021/06/09 07:36:22;;;;;;;4.75;4.25;;;;;;;19.20;57.67;93130.02;1746637;79;21761;-86
2021/06/09 07:38:55;;;;;;;5.05;3.45;;;;;;;19.29;57.16;93130.02;1771914;80;21077;-81
2021/06/09 07:41:21;;;;;;;4.15;3.77;;;;;;;19.29;57.87;93140.42;1791602;78;22148;-84
2021/06/09 07:43:48;;;;;;;5.53;4.00;;;;;;;19.21;57.58;93134.30;1768551;79;21134;-81
2021/06/09 07:46:19;;;;;;;3.87;3.35;;;;;;;19.15;59.18;93134.15;1785546;76;21097;-82
2021/06/09 07:48:47;;;;;;;4.28;3.47;;;;;;;19.09;59.73;93149.74;1811578;79;21017;-81
2021/06/09 07:51:14;;;;;;;7.85;4.33;;;;;;;18.96;57.65;93142.98;1803309;77;21437;-83
2021/06/09 07:53:41;;;;;;;4.28;3.87;;;;;;;18.84;58.81;93143.27;1763428;80;21041;-78
2021/06/09 07:56:12;;;;;;;4.17;3.77;;;;;;;18.70;60.24;93143.79;1803166;79;22082;-79
2021/06/09 07:58:40;;;;;;;4.37;3.40;;;;;;;18.56;62.55;93151.22;1821196;76;21040;-81
2021/06/09 08:01:07;;;;;;;6.55;3.80;;;;;;;18.38;65.84;93155.41;1872686;75;21445;-80
2021/06/09 08:03:34;;;;;;;7.60;4.03;;;;;;;18.08;67.50;93158.91;1805374;79;21116;-83
2021/06/09 08:06:01;;;;;;;3.55;3.33;;;;;;;17.78;68.00;93159.02;1794388;76;21024;-82
2021/06/09 08:08:29;;;;;;;3.98;3.37;;;;;;;17.51;68.51;93147.17;1813523;79;21757;-80
2021/06/09 08:10:56;;;;;;;6.17;3.90;;;;;;;17.31;70.11;93156.48;1843277;77;21053;-80
2021/06/09 08:13:22;;;;;;;5.42;3.90;;;;;;;17.19;71.64;93160.80;1785300;78;21117;-79
2021/06/09 08:15:51;;;;;;;3.35;3.10;;;;;;;17.07;71.85;93157.45;1793586;79;21033;-81
2021/06/09 08:18:18;;;;;;;4.17;3.70;;;;;;;16.95;71.87;93150.02;1809892;75;21610;-83
2021/06/09 08:21:05;;;;;;;4.12;3.55;;;;;;;16.82;72.37;93153.39;1814881;78;21072;-81
2021/06/09 08:23:32;;;;;;;5.72;3.92;;;;;;;16.69;73.34;93149.23;1837366;76;20990;-79
2021/06/09 08:25:58;;;;;;;8.10;4.12;;;;;;;16.58;74.44;93141.94;1790146;78;21044;-81
2021/06/09 08:28:25;;;;;;;5.92;3.87;;;;;;;16.46;75.07;93157.20;1832839;78;21057;-81
2021/06/09 08:30:52;;;;;;;4.75;3.67;;;;;;;16.41;75.43;93160.50;1795010;79;21101;-80
2021/06/09 08:33:18;;;;;;;6.30;3.75;;;;;;;16.34;74.63;93143.65;1797508;79;22113;-81
2021/06/09 08:35:45;;;;;;;5.10;3.90;;;;;;;16.29;74.98;93147.55;1814561;78;21027;-80
2021/06/09 08:38:11;;;;;;;9.50;4.78;;;;;;;16.29;75.79;93155.17;1791154;77;21005;-81
2021/06/09 08:40:38;;;;;;;6.28;4.03;;;;;;;16.31;76.47;93146.50;1815746;78;21693;-80
2021/06/09 08:43:04;;;;;;;4.37;3.60;;;;;;;16.33;76.00;93145.47;1800281;79;21069;-82
2021/06/09 08:45:31;;;;;;;3.72;3.20;;;;;;;16.40;75.55;93150.75;1786427;79;21067;-80
2021/06/09 08:47:58;;;;;;;6.70;4.03;;;;;;;16.45;75.53;93150.95;1782996;80;21088;-80
2021/06/09 08:50:26;;;;;;;4.12;3.70;;;;;;;16.54;75.37;93155.77;1813510;79;21041;-84
2021/06/09 08:52:52;;;;;;;6.42;4.50;;;;;;;16.69;76.56;93140.39;1790124;79;21598;-80
2021/06/09 08:55:19;;;;;;;6.05;4.90;;;;;;;16.91;78.49;93150.13;1759358;81;21554;-82
2021/06/09 08:57:46;;;;;;;14.47;10.15;;;;;;;17.11;78.17;93155.38;1792612;79;21254;-81
2021/06/09 09:00:14;;;;;;;6.90;5.45;;;;;;;17.26;77.74;93148.78;1795511;77;21006;-83
2021/06/09 09:02:41;;;;;;;6.20;4.05;;;;;;;17.36;76.84;93160.63;1785809;79;21069;-84
2021/06/09 09:05:09;;;;;;;3.77;3.47;;;;;;;17.45;75.55;93145.00;1762958;80;21029;-84
2021/06/09 09:07:36;;;;;;;3.92;3.52;;;;;;;17.63;70.48;93136.73;1781805;78;21108;-84
2021/06/09 09:10:05;;;;;;;7.08;3.80;;;;;;;17.92;65.09;93135.89;1787083;80;21126;-81
2021/06/09 09:12:33;;;;;;;6.17;3.75;;;;;;;18.29;63.03;93132.59;1787831;79;21109;-81
2021/06/09 09:15:01;;;;;;;3.25;3.02;;;;;;;18.61;62.93;93130.73;1777948;79;20977;-85
2021/06/09 09:17:27;;;;;;;5.22;3.60;;;;;;;18.90;60.58;93133.77;1778795;79;21078;-81
2021/06/09 09:20:07;;;;;;;5.80;3.95;;;;;;;19.17;58.26;93123.42;1792243;79;21137;-82
2021/06/09 09:22:33;;;;;;;5.78;3.65;;;;;;;19.38;57.05;93128.05;1770561;79;21031;-80
2021/06/09 09:25:00;;;;;;;3.67;3.12;;;;;;;19.61;51.36;93127.29;1773082;80;21135;-79
2021/06/09 09:27:32;;;;;;;6.00;3.45;;;;;;;19.79;53.57;93126.55;1759599;80;21034;-80
2021/06/09 09:30:05;;;;;;;6.55;3.33;;;;;;;19.92;50.83;93134.66;1824726;76;21571;-80
2021/06/09 09:32:33;;;;;;;3.77;3.25;;;;;;;20.03;51.97;93121.91;1769685;80;21069;-80
2021/06/09 09:35:09;;;;;;;5.58;3.40;;;;;;;20.17;52.57;93122.52;1776846;79;21149;-81
2021/06/09 09:37:36;;;;;;;5.05;3.80;;;;;;;20.34;51.20;93123.05;1802239;79;21240;-80
2021/06/09 09:40:19;;;;;;;5.25;3.50;;;;;;;20.48;50.79;93129.92;1810166;79;21100;-82
2021/06/09 09:42:48;;;;;;;4.10;3.70;;;;;;;20.61;50.29;93129.16;1809783;79;21131;-83
2021/06/09 09:48:11;;;;;;;7.03;3.70;;;;;;;20.60;50.21;93128.98;1886443;76;22447;-83
2021/06/09 09:50:46;;;;;;;8.20;3.77;;;;;;;20.47;50.50;93140.07;1829503;77;21476;-79
2021/06/09 09:53:23;;;;;;;5.25;4.20;;;;;;;20.28;52.54;93149.02;1825863;77;22535;-81
2021/06/09 09:56:04;;;;;;;3.65;3.35;;;;;;;19.96;57.84;93173.89;1781859;77;21402;-82
2021/06/09 09:58:35;;;;;;;4.05;3.75;;;;;;;19.30;57.48;93168.78;1743429;80;21042;-79
2021/06/09 10:01:18;;;;;;;5.28;4.28;;;;;;;18.65;59.92;93162.27;1726902;80;21048;-82
2021/06/09 10:03:48;;;;;;;8.55;4.53;;;;;;;18.26;63.29;93161.02;1775592;79;21113;-82
2021/06/09 10:08:51;;;;;;;10.53;4.83;;;;;;;17.79;67.73;93151.71;1741551;80;20885;-79
2021/06/09 10:11:19;;;;;;;4.85;4.12;;;;;;;17.56;69.56;93147.97;1789421;77;21025;-78
2021/06/09 10:13:47;;;;;;;6.55;4.58;;;;;;;17.25;70.48;93148.63;1789264;78;20910;-80
2021/06/09 10:16:30;;;;;;;9.55;4.08;;;;;;;17.05;72.78;93147.53;1801613;79;21107;-79
2021/06/09 10:19:07;;;;;;;7.08;4.30;;;;;;;16.99;75.44;93142.42;1802403;79;21080;-78
2021/06/09 10:21:50;;;;;;;4.50;4.05;;;;;;;17.06;78.01;93139.44;1802897;77;21123;-79
2021/06/09 10:24:17;;;;;;;5.15;4.65;;;;;;;17.15;79.30;93142.88;1842608;76;21007;-79
2021/06/09 10:26:52;;;;;;;9.45;4.80;;;;;;;17.14;79.52;93133.87;1813171;78;21109;-81
2021/06/09 10:29:18;;;;;;;8.45;4.80;;;;;;;17.13;78.50;93131.58;1793206;78;21085;-80
2021/06/09 10:31:53;;;;;;;11.85;7.00;;;;;;;17.08;78.16;93132.91;1788632;79;21099;-81
2021/06/09 10:34:29;;;;;;;5.83;5.10;;;;;;;17.09;78.35;93138.56;1770089;79;21077;-80
2021/06/09 10:36:57;;;;;;;5.62;5.12;;;;;;;17.12;80.09;93136.91;1754423;80;21129;-80
2021/06/09 10:39:27;;;;;;;5.67;4.45;;;;;;;17.11;81.57;93144.97;1779259;79;21147;-82
2021/06/09 10:41:56;;;;;;;4.42;3.92;;;;;;;17.08;75.96;93143.14;1743903;80;21149;-82
2021/06/09 10:44:25;;;;;;;4.78;3.90;;;;;;;17.06;73.17;93145.55;1796441;78;21060;-79
2021/06/09 10:46:56;;;;;;;4.33;3.90;;;;;;;17.02;73.04;93156.65;1776850;78;21136;-85
2021/06/09 10:49:22;;;;;;;3.87;3.55;;;;;;;17.05;73.51;93161.88;1794774;78;21042;-83
2021/06/09 10:51:52;;;;;;;3.12;2.92;;;;;;;17.06;72.01;93164.16;1769030;78;21094;-80
2021/06/09 10:54:21;;;;;;;4.45;3.83;;;;;;;17.06;69.31;93166.91;1808382;79;21488;-81
2021/06/09 10:56:48;;;;;;;5.35;4.22;;;;;;;17.04;69.21;93162.48;1813993;78;21092;-80
2021/06/09 10:59:18;;;;;;;4.42;3.60;;;;;;;17.04;68.31;93156.19;1780767;80;21033;-81
2021/06/09 11:01:46;;;;;;;3.92;3.62;;;;;;;17.03;67.50;93154.05;1780471;79;21060;-82
2021/06/09 11:04:12;;;;;;;3.60;3.30;;;;;;;17.05;67.63;93150.27;1825116;77;21058;-81
2021/06/09 11:09:26;;;;;;;3.98;3.58;;;;;;;17.10;68.51;93146.19;1804527;78;21131;-78
2021/06/09 11:12:14;;;;;;;3.75;3.52;;;;;;;17.16;70.38;93153.44;1832779;77;21045;-79
2021/06/09 11:14:48;;;;;;;4.10;3.70;;;;;;;17.24;71.03;93153.97;1751244;80;21121;-80
2021/06/09 11:17:15;;;;;;;4.22;3.85;;;;;;;17.34;72.43;93148.73;1789399;79;21057;-77
2021/06/09 11:19:45;;;;;;;4.40;4.00;;;;;;;17.48;74.16;93158.44;1851003;77;21045;-79
2021/06/09 11:22:25;;;;;;;4.97;4.15;;;;;;;17.60;73.60;93156.86;1840461;76;22880;-77
2021/06/09 11:25:25;;;;;;;4.53;4.17;;;;;;;17.70;73.85;93161.98;1777329;77;21287;-77
2021/06/09 11:27:57;;;;;;;4.75;4.33;;;;;;;17.73;73.40;93165.83;1852812;77;21033;-79
2021/06/09 11:30:32;;;;;;;8.03;4.75;;;;;;;17.67;71.58;93162.88;1815039;78;21732;-79
2021/06/09 11:33:01;;;;;;;8.13;4.50;;;;;;;17.57;71.16;93159.91;1851021;77;21053;-78
2021/06/09 11:35:50;;;;;;;8.15;4.70;;;;;;;17.48;69.87;93162.56;1812055;77;21085;-78
2021/06/09 11:38:28;;;;;;;4.87;4.40;;;;;;;17.38;69.65;93162.34;1808417;78;20943;-80
2021/06/09 11:41:11;;;;;;;6.70;4.30;;;;;;;17.33;71.27;93160.14;1808376;78;21057;-79
2021/06/09 11:43:48;;;;;;;6.17;4.45;;;;;;;17.28;70.61;93153.84;1771120;80;21595;-79
2021/06/09 11:46:21;;;;;;;5.87;5.03;;;;;;;17.27;71.26;93146.83;1774723;80;21200;-78
2021/06/09 11:51:42;;;;;;;8.00;4.30;;;;;;;17.29;71.36;93152.02;1769277;80;21101;-79
2021/06/09 11:54:28;;;;;;;9.48;5.00;;;;;;;17.33;71.25;93150.52;1780207;79;20899;-79
2021/06/09 11:57:05;;;;;;;5.30;4.80;;;;;;;17.34;71.55;93141.86;1758384;81;21074;-81
2021/06/09 11:59:34;;;;;;;4.80;4.28;;;;;;;17.39;69.77;93146.01;1756350;81;21038;-81
2021/06/09 12:02:21;;;;;;;5.78;4.40;;;;;;;17.44;70.11;93137.19;1771339;79;21106;-81
2021/06/09 12:04:52;;;;;;;4.95;4.30;;;;;;;17.50;71.04;93128.55;1814024;77;20903;-81